createdAt,value
2017-09-12T00:01:09.266Z,33.20
2017-09-12T00:03:37.824Z,33.00
2017-09-12T00:06:06.366Z,32.60
2017-09-12T00:08:35.992Z,32.50
2017-09-12T00:11:04.032Z,32.50
2017-09-12T00:13:33.239Z,32.30
2017-09-12T00:16:02.628Z,32.30
2017-09-12T00:18:31.314Z,32.30
2017-09-12T00:20:59.987Z,32.10
2017-09-12T00:23:28.687Z,32.20
2017-09-12T00:25:57.316Z,32.30
2017-09-12T00:28:26.051Z,32.40
2017-09-12T00:30:55.147Z,32.50
2017-09-12T00:33:23.375Z,32.50
2017-09-12T00:35:52.059Z,32.60
2017-09-12T00:38:21.006Z,32.60
2017-09-12T00:40:49.791Z,32.70
2017-09-12T00:43:18.570Z,32.60
2017-09-12T00:45:47.283Z,32.70
2017-09-12T00:48:16.019Z,32.70
2017-09-12T00:50:44.747Z,32.70
2017-09-12T00:53:13.952Z,32.70
2017-09-12T00:55:43.047Z,32.70
2017-09-12T00:58:13.471Z,32.70
2017-09-12T01:00:42.770Z,32.70
2017-09-12T01:03:11.563Z,32.70
2017-09-12T01:05:40.352Z,32.60
2017-09-12T01:08:08.715Z,32.60
2017-09-12T01:10:37.426Z,32.70
2017-09-12T01:13:06.106Z,32.70
2017-09-12T01:15:35.091Z,32.70
2017-09-12T01:18:03.714Z,32.70
2017-09-12T01:20:33.292Z,32.80
2017-09-12T01:23:01.995Z,32.80
2017-09-12T01:25:30.667Z,32.90
2017-09-12T01:27:59.363Z,32.90
2017-09-12T01:30:28.252Z,32.90
2017-09-12T01:32:57.133Z,32.90
2017-09-12T01:35:25.759Z,33.00
2017-09-12T01:37:55.543Z,32.90
2017-09-12T01:40:24.279Z,32.90
2017-09-12T01:42:52.868Z,32.90
2017-09-12T01:45:21.759Z,32.90
2017-09-12T01:47:50.398Z,32.80
2017-09-12T01:50:19.283Z,32.80
2017-09-12T01:52:48.486Z,32.80
2017-09-12T01:55:19.019Z,32.80
2017-09-12T01:57:48.527Z,32.80
2017-09-12T02:00:17.211Z,32.80
2017-09-12T02:02:45.999Z,32.70
2017-09-12T02:05:15.039Z,32.70
2017-09-12T02:07:43.867Z,32.70
2017-09-12T02:10:12.663Z,32.70
2017-09-12T02:12:41.304Z,32.60
2017-09-12T02:15:10.056Z,32.70
2017-09-12T02:17:38.734Z,32.60
2017-09-12T02:20:07.832Z,32.60
2017-09-12T02:22:36.722Z,32.60
2017-09-12T02:25:04.971Z,32.60
2017-09-12T02:27:33.292Z,32.60
2017-09-12T02:30:01.526Z,32.60
2017-09-12T02:32:29.763Z,32.60
2017-09-12T02:34:58.251Z,32.60
2017-09-12T02:37:27.404Z,32.70
2017-09-12T02:39:55.651Z,32.60
2017-09-12T02:42:23.967Z,32.70
2017-09-12T02:44:52.187Z,32.70
2017-09-12T02:47:21.167Z,32.70
2017-09-12T02:49:50.459Z,32.80
2017-09-12T02:52:19.436Z,32.80
2017-09-12T02:54:47.692Z,32.80
2017-09-12T02:57:16.466Z,32.80
2017-09-12T02:59:49.735Z,33.00
2017-09-12T03:02:18.867Z,33.10
2017-09-12T03:04:47.107Z,33.10
2017-09-12T03:07:16.091Z,33.40
2017-09-12T03:09:45.827Z,33.50
2017-09-12T03:12:14.567Z,33.40
2017-09-12T03:14:43.402Z,33.40
2017-09-12T03:17:12.298Z,33.40
2017-09-12T03:19:41.123Z,33.50
2017-09-12T03:22:09.799Z,33.70
2017-09-12T03:24:39.047Z,33.80
2017-09-12T03:27:08.530Z,34.00
2017-09-12T03:29:37.413Z,34.00
2017-09-12T03:32:06.439Z,34.10
2017-09-12T03:34:35.930Z,34.30
2017-09-12T03:37:04.820Z,34.30
2017-09-12T03:39:34.015Z,34.40
2017-09-12T03:42:02.855Z,34.50
2017-09-12T03:44:31.686Z,34.50
2017-09-12T03:47:00.380Z,34.80
2017-09-12T03:49:28.926Z,34.60
2017-09-12T03:51:57.554Z,34.80
2017-09-12T03:54:26.755Z,35.00
2017-09-12T03:56:55.751Z,35.10
2017-09-12T03:59:25.056Z,35.40
2017-09-12T04:01:53.956Z,35.60
2017-09-12T04:04:22.783Z,35.50
2017-09-12T04:06:51.118Z,35.40
2017-09-12T04:09:19.907Z,35.40
2017-09-12T04:11:48.695Z,35.70
2017-09-12T04:14:17.483Z,36.00
2017-09-12T04:16:46.579Z,36.10
2017-09-12T04:19:15.458Z,36.40
2017-09-12T04:21:44.160Z,36.80
2017-09-12T04:24:13.871Z,37.30
2017-09-12T04:26:42.764Z,37.30
2017-09-12T04:29:11.598Z,37.50
2017-09-12T04:31:40.696Z,37.50
2017-09-12T04:34:09.635Z,37.90
2017-09-12T04:36:38.251Z,38.40
2017-09-12T04:39:08.038Z,39.10
2017-09-12T04:41:36.926Z,39.10
2017-09-12T04:44:05.751Z,39.50
2017-09-12T04:46:35.639Z,40.00
2017-09-12T04:49:04.518Z,40.00
2017-09-12T04:51:33.208Z,41.00
2017-09-12T04:54:01.910Z,41.70
2017-09-12T04:56:30.799Z,42.50
2017-09-12T04:58:59.687Z,42.50
2017-09-12T05:01:28.886Z,43.20
2017-09-12T05:03:57.678Z,43.10
2017-09-12T05:06:26.515Z,41.80
2017-09-12T05:08:55.612Z,41.60
2017-09-12T05:11:24.547Z,41.60
2017-09-12T05:13:53.171Z,40.80
2017-09-12T05:16:22.855Z,40.80
2017-09-12T05:18:51.732Z,40.70
2017-09-12T05:21:19.959Z,40.70
2017-09-12T05:23:49.494Z,42.60
2017-09-12T05:26:17.743Z,42.60
2017-09-12T05:28:47.158Z,44.70
2017-09-12T05:31:15.491Z,44.60
2017-09-12T05:33:44.302Z,45.30
2017-09-12T05:36:13.787Z,45.90
2017-09-12T05:38:42.728Z,45.80
2017-09-12T05:41:11.665Z,45.70
2017-09-12T05:43:40.553Z,44.40
2017-09-12T05:46:09.258Z,43.80
2017-09-12T05:48:38.743Z,44.30
2017-09-12T05:51:07.532Z,44.30
2017-09-12T05:53:36.291Z,44.10
2017-09-12T05:56:05.022Z,43.00
2017-09-12T05:58:34.431Z,42.80
2017-09-12T06:01:03.226Z,42.80
2017-09-12T06:03:33.007Z,43.10
2017-09-12T06:06:01.286Z,43.10
2017-09-12T06:08:30.207Z,42.70
2017-09-12T06:10:59.048Z,42.90
2017-09-12T06:13:27.770Z,42.80
2017-09-12T06:15:56.603Z,43.20
2017-09-12T06:18:26.191Z,44.80
2017-09-12T06:20:54.544Z,44.80
2017-09-12T06:23:23.359Z,46.30
2017-09-12T06:25:52.039Z,46.80
2017-09-12T06:28:20.775Z,47.00
2017-09-12T06:30:49.780Z,46.70
2017-09-12T06:33:18.709Z,45.80
2017-09-12T06:35:47.334Z,46.30
2017-09-12T06:38:17.011Z,45.10
2017-09-12T06:40:45.784Z,45.00
2017-09-12T06:43:14.011Z,45.20
2017-09-12T06:45:43.492Z,44.80
2017-09-12T06:48:12.330Z,44.80
2017-09-12T06:50:41.059Z,44.70
2017-09-12T06:53:09.544Z,44.40
2017-09-12T06:55:38.169Z,44.30
2017-09-12T06:58:06.666Z,44.20
2017-09-12T07:00:35.616Z,44.40
2017-09-12T07:03:04.248Z,44.10
2017-09-12T07:05:33.271Z,43.80
2017-09-12T07:08:02.043Z,43.80
2017-09-12T07:10:30.716Z,43.80
2017-09-12T07:12:59.463Z,43.70
2017-09-12T07:15:28.971Z,44.00
2017-09-12T07:17:57.644Z,44.00
2017-09-12T07:20:26.443Z,43.80
2017-09-12T07:22:55.283Z,43.70
2017-09-12T07:25:24.205Z,44.00
2017-09-12T07:27:52.836Z,43.90
2017-09-12T07:30:22.565Z,44.10
2017-09-12T07:32:51.455Z,44.00
2017-09-12T07:35:20.150Z,44.10
2017-09-12T07:37:48.895Z,44.10
2017-09-12T07:40:17.590Z,44.10
2017-09-12T07:42:47.006Z,43.90
2017-09-12T07:45:16.898Z,44.20
2017-09-12T07:47:45.643Z,44.20
2017-09-12T07:50:14.560Z,44.30
2017-09-12T07:52:43.537Z,44.60
2017-09-12T07:55:12.027Z,44.40
2017-09-12T07:57:40.744Z,44.30
2017-09-12T08:00:15.052Z,44.40
2017-09-12T08:02:43.567Z,44.70
2017-09-12T08:05:12.215Z,45.60
2017-09-12T08:07:41.340Z,46.70
2017-09-12T08:10:10.759Z,48.50
2017-09-12T08:12:40.107Z,49.00
2017-09-12T08:15:10.920Z,49.00
2017-09-12T08:17:39.440Z,48.60
2017-09-12T08:20:08.235Z,47.90
2017-09-12T08:22:36.675Z,47.70
2017-09-12T08:25:05.342Z,46.20
2017-09-12T08:27:34.904Z,45.00
2017-09-12T08:30:03.223Z,45.00
2017-09-12T08:32:32.199Z,44.30
2017-09-12T08:35:00.419Z,44.30
2017-09-12T08:37:28.718Z,44.10
2017-09-12T08:39:56.951Z,43.90
2017-09-12T08:42:26.066Z,44.10
2017-09-12T08:44:54.501Z,44.10
2017-09-12T08:47:22.719Z,44.10
2017-09-12T08:49:50.945Z,44.00
2017-09-12T08:52:19.254Z,43.90
2017-09-12T08:54:48.231Z,43.80
2017-09-12T08:57:16.425Z,43.70
2017-09-12T08:59:46.145Z,43.60
2017-09-12T09:02:15.474Z,43.90
2017-09-12T09:04:43.772Z,43.80
2017-09-12T09:07:12.100Z,43.90
2017-09-12T09:09:41.257Z,43.80
2017-09-12T09:12:09.445Z,43.70
2017-09-12T09:14:37.688Z,43.80
2017-09-12T09:17:06.487Z,43.60
2017-09-12T09:19:35.329Z,43.80
2017-09-12T09:22:05.172Z,43.70
2017-09-12T09:24:33.332Z,43.70
2017-09-12T09:27:02.692Z,43.30
2017-09-12T09:29:31.656Z,43.30
2017-09-12T09:32:00.404Z,43.30
2017-09-12T09:34:29.752Z,43.30
2017-09-12T09:36:58.776Z,43.30
2017-09-12T09:39:26.940Z,43.30
2017-09-12T09:41:56.316Z,42.90
2017-09-12T09:44:25.134Z,42.90
2017-09-12T09:46:53.324Z,42.90
2017-09-12T09:49:22.082Z,42.90
2017-09-12T09:51:51.140Z,42.60
2017-09-12T09:54:20.718Z,42.60
2017-09-12T09:56:49.473Z,42.70
2017-09-12T09:59:17.712Z,42.40
2017-09-12T10:01:47.295Z,42.50
2017-09-12T10:04:16.232Z,42.40
2017-09-12T10:06:45.165Z,42.40
2017-09-12T10:09:14.184Z,42.40
2017-09-12T10:11:43.180Z,42.40
2017-09-12T10:14:12.008Z,42.40
2017-09-12T10:16:40.408Z,42.30
2017-09-12T10:19:09.013Z,42.00
2017-09-12T10:21:37.800Z,42.20
2017-09-12T10:24:06.472Z,42.20
2017-09-12T10:26:35.116Z,41.80
2017-09-12T10:29:04.912Z,41.90
2017-09-12T10:31:33.631Z,41.90
2017-09-12T10:34:02.442Z,41.80
2017-09-12T10:36:31.120Z,41.80
2017-09-12T10:38:59.765Z,41.90
2017-09-12T10:41:28.384Z,42.00
2017-09-12T10:43:58.071Z,41.70
2017-09-12T10:46:27.324Z,41.60
2017-09-12T10:48:55.928Z,41.60
2017-09-12T10:51:24.708Z,41.60
2017-09-12T10:53:52.761Z,41.60
2017-09-12T10:56:21.400Z,41.60
2017-09-12T10:58:50.172Z,41.60
2017-09-12T11:01:18.905Z,41.30
2017-09-12T11:03:47.360Z,41.30
2017-09-12T11:06:16.120Z,41.20
2017-09-12T11:08:44.799Z,41.00
2017-09-12T11:11:13.171Z,41.30
2017-09-12T11:13:42.204Z,41.20
2017-09-12T11:16:10.867Z,41.20
2017-09-12T11:18:39.684Z,40.90
2017-09-12T11:21:08.548Z,40.90
2017-09-12T11:23:37.321Z,40.90
2017-09-12T11:26:05.808Z,40.80
2017-09-12T11:28:34.420Z,40.90
2017-09-12T11:31:03.052Z,40.80
2017-09-12T11:33:31.456Z,40.70
2017-09-12T11:36:00.876Z,40.80
2017-09-12T11:38:29.359Z,40.50
2017-09-12T11:40:58.045Z,40.40
2017-09-12T11:43:26.821Z,40.40
2017-09-12T11:45:55.308Z,40.30
2017-09-12T11:48:23.932Z,40.70
2017-09-12T11:50:53.313Z,41.10
2017-09-12T11:53:21.852Z,41.10
2017-09-12T11:55:50.666Z,41.20
2017-09-12T11:58:19.227Z,41.10
2017-09-12T12:00:47.752Z,41.00
2017-09-12T12:03:16.432Z,40.90
2017-09-12T12:05:45.284Z,40.70
2017-09-12T12:08:14.661Z,40.50
2017-09-12T12:10:43.302Z,40.50
2017-09-12T12:13:12.411Z,40.60
2017-09-12T12:15:41.507Z,40.60
2017-09-12T12:18:10.136Z,40.50
2017-09-12T12:20:39.821Z,40.20
2017-09-12T12:23:08.799Z,40.10
2017-09-12T12:25:37.032Z,40.20
2017-09-12T12:28:05.972Z,40.00
2017-09-12T12:30:34.767Z,40.00
2017-09-12T12:33:03.708Z,40.20
2017-09-12T12:35:32.655Z,40.20
2017-09-12T12:38:01.536Z,40.10
2017-09-12T12:40:29.779Z,40.00
2017-09-12T12:42:58.715Z,39.90
2017-09-12T12:45:27.511Z,39.80
2017-09-12T12:47:56.718Z,39.50
2017-09-12T12:50:25.802Z,39.50
2017-09-12T12:52:54.044Z,39.50
2017-09-12T12:55:22.279Z,39.40
2017-09-12T12:57:51.822Z,39.40
2017-09-12T13:00:20.503Z,39.40
2017-09-12T13:02:49.239Z,39.20
2017-09-12T13:05:18.335Z,39.10
2017-09-12T13:07:47.113Z,39.20
2017-09-12T13:10:15.635Z,39.10
2017-09-12T13:12:45.529Z,39.00
2017-09-12T13:15:14.931Z,38.90
2017-09-12T13:17:44.355Z,38.90
2017-09-12T13:20:13.991Z,38.40
2017-09-12T13:22:42.820Z,38.40
2017-09-12T13:25:11.058Z,38.50
2017-09-12T13:27:39.907Z,38.40
2017-09-12T13:30:08.131Z,38.30
2017-09-12T13:32:36.776Z,38.30
2017-09-12T13:35:05.756Z,38.20
2017-09-12T13:37:34.552Z,38.20
2017-09-12T13:40:02.795Z,38.20
2017-09-12T13:42:31.735Z,38.20
2017-09-12T13:45:00.567Z,38.20
2017-09-12T13:47:29.252Z,38.20
2017-09-12T13:49:58.291Z,38.10
2017-09-12T13:52:27.139Z,37.90
2017-09-12T13:54:56.019Z,37.90
2017-09-12T13:57:25.955Z,37.70
2017-09-12T13:59:54.645Z,37.80
2017-09-12T14:02:23.466Z,37.60
2017-09-12T14:04:52.888Z,37.60
2017-09-12T14:07:22.308Z,37.40
2017-09-12T14:09:52.036Z,37.40
2017-09-12T14:12:21.027Z,37.50
2017-09-12T14:14:49.861Z,37.40
2017-09-12T14:17:18.511Z,37.40
2017-09-12T14:19:48.187Z,37.30
2017-09-12T14:22:17.683Z,37.30
2017-09-12T14:24:47.147Z,37.20
2017-09-12T14:27:16.145Z,37.20
2017-09-12T14:29:44.883Z,37.30
2017-09-12T14:32:14.447Z,37.20
2017-09-12T14:34:43.269Z,37.20
2017-09-12T14:37:11.952Z,37.00
2017-09-12T14:39:40.843Z,37.00
2017-09-12T14:42:09.890Z,37.00
2017-09-12T14:44:38.405Z,36.80
2017-09-12T14:47:07.012Z,36.90
2017-09-12T14:49:35.904Z,36.90
2017-09-12T14:52:04.791Z,36.80
2017-09-12T14:54:33.631Z,36.70
2017-09-12T14:57:02.334Z,36.70
2017-09-12T14:59:31.254Z,36.70
2017-09-12T15:02:00.819Z,36.60
2017-09-12T15:04:29.649Z,36.60
2017-09-12T15:06:58.281Z,36.60
2017-09-12T15:09:27.804Z,36.60
2017-09-12T15:11:56.298Z,36.50
2017-09-12T15:14:24.816Z,36.50
2017-09-12T15:16:53.855Z,36.40
2017-09-12T15:19:22.997Z,36.40
2017-09-12T15:21:51.680Z,36.40
2017-09-12T15:24:19.915Z,36.40
2017-09-12T15:26:48.975Z,36.20
2017-09-12T15:29:17.203Z,36.20
2017-09-12T15:31:45.868Z,36.30
2017-09-12T15:34:15.596Z,36.10
2017-09-12T15:36:44.492Z,36.20
2017-09-12T15:39:13.177Z,36.30
2017-09-12T15:41:42.755Z,36.10
2017-09-12T15:44:10.799Z,36.10
2017-09-12T15:46:40.279Z,36.20
2017-09-12T15:49:08.928Z,36.10
2017-09-12T15:51:38.088Z,36.00
2017-09-12T15:54:06.588Z,36.00
2017-09-12T15:56:35.391Z,36.00
2017-09-12T15:59:03.464Z,36.00
2017-09-12T16:01:31.916Z,36.10
2017-09-12T16:04:00.939Z,36.00
2017-09-12T16:06:29.664Z,36.00
2017-09-12T16:08:59.036Z,36.00
2017-09-12T16:11:27.896Z,35.90
2017-09-12T16:13:56.652Z,35.90
2017-09-12T16:16:25.055Z,35.90
2017-09-12T16:18:53.893Z,35.80
2017-09-12T16:21:23.051Z,35.90
2017-09-12T16:23:52.300Z,35.90
2017-09-12T16:26:21.756Z,35.80
2017-09-12T16:28:49.807Z,35.80
2017-09-12T16:31:18.449Z,35.80
2017-09-12T16:33:46.675Z,35.80
2017-09-12T16:36:15.195Z,35.80
2017-09-12T16:38:44.528Z,35.70
2017-09-12T16:41:14.079Z,35.70
2017-09-12T16:43:43.643Z,35.70
2017-09-12T16:46:13.401Z,35.70
2017-09-12T16:48:42.034Z,35.60
2017-09-12T16:51:11.249Z,35.60
2017-09-12T16:53:41.329Z,35.60
2017-09-12T16:56:09.968Z,35.60
2017-09-12T16:58:38.371Z,35.60
2017-09-12T17:01:07.254Z,35.50
2017-09-12T17:03:35.874Z,35.50
2017-09-12T17:06:04.509Z,35.50
2017-09-12T17:08:32.747Z,35.40
2017-09-12T17:11:00.877Z,35.40
2017-09-12T17:13:29.621Z,35.50
2017-09-12T17:15:59.225Z,35.30
2017-09-12T17:18:27.941Z,35.40
2017-09-12T17:20:55.996Z,35.40
2017-09-12T17:23:25.550Z,35.20
2017-09-12T17:25:54.315Z,35.20
2017-09-12T17:28:22.797Z,35.20
2017-09-12T17:30:51.496Z,35.20
2017-09-12T17:33:20.024Z,35.20
2017-09-12T17:35:48.753Z,35.20
2017-09-12T17:38:18.413Z,35.10
2017-09-12T17:40:46.514Z,35.10
2017-09-12T17:43:15.370Z,35.10
2017-09-12T17:45:44.243Z,35.10
2017-09-12T17:48:12.989Z,35.00
2017-09-12T17:50:42.277Z,35.00
2017-09-12T17:53:11.048Z,35.00
2017-09-12T17:55:39.984Z,35.00
2017-09-12T17:58:08.725Z,35.00
2017-09-12T18:00:37.415Z,35.10
2017-09-12T18:03:05.502Z,35.00
2017-09-12T18:05:34.339Z,35.00
2017-09-12T18:08:03.360Z,34.90
2017-09-12T18:10:31.835Z,35.00
2017-09-12T18:13:00.445Z,35.00
2017-09-12T18:15:29.441Z,35.00
2017-09-12T18:17:58.180Z,35.00
2017-09-12T18:20:27.068Z,35.00
2017-09-12T18:22:56.098Z,35.00
2017-09-12T18:25:24.577Z,35.00
2017-09-12T18:27:54.296Z,34.90
2017-09-12T18:30:23.294Z,35.00
2017-09-12T18:32:51.805Z,34.90
2017-09-12T18:35:20.436Z,34.90
2017-09-12T18:37:49.265Z,34.80
2017-09-12T18:40:17.328Z,34.80
2017-09-12T18:42:45.916Z,34.90
2017-09-12T18:45:14.098Z,34.90
2017-09-12T18:47:42.676Z,34.90
2017-09-12T18:50:11.360Z,34.80
2017-09-12T18:52:40.213Z,34.80
2017-09-12T18:55:08.676Z,34.80
2017-09-12T18:57:38.199Z,34.80
2017-09-12T19:00:06.427Z,34.70
2017-09-12T19:02:35.010Z,34.70
2017-09-12T19:05:03.473Z,34.80
2017-09-12T19:07:32.990Z,34.80
2017-09-12T19:10:01.880Z,34.70
2017-09-12T19:12:30.832Z,34.70
2017-09-12T19:15:00.625Z,34.70
2017-09-12T19:17:29.445Z,34.70
2017-09-12T19:19:57.991Z,34.60
2017-09-12T19:22:26.811Z,34.70
2017-09-12T19:24:56.183Z,34.60
2017-09-12T19:27:24.901Z,34.60
2017-09-12T19:29:54.176Z,34.60
2017-09-12T19:32:22.816Z,34.50
2017-09-12T19:34:51.299Z,34.50
2017-09-12T19:37:19.882Z,34.50
2017-09-12T19:39:49.259Z,34.60
2017-09-12T19:42:17.792Z,34.60
2017-09-12T19:44:46.019Z,34.50
2017-09-12T19:47:15.364Z,34.50
2017-09-12T19:49:43.412Z,34.50
2017-09-12T19:52:12.360Z,34.50
2017-09-12T19:54:41.076Z,34.40
2017-09-12T19:57:10.348Z,34.50
2017-09-12T19:59:39.276Z,34.50
2017-09-12T20:02:08.065Z,34.50
2017-09-12T20:04:36.130Z,34.50
2017-09-12T20:07:04.968Z,34.50
2017-09-12T20:09:33.580Z,34.50
2017-09-12T20:12:02.285Z,34.60
2017-09-12T20:14:31.943Z,34.50
2017-09-12T20:17:00.723Z,34.50
2017-09-12T20:19:29.213Z,34.50
2017-09-12T20:21:58.155Z,34.40
2017-09-12T20:24:27.709Z,34.50
2017-09-12T20:26:56.139Z,34.50
2017-09-12T20:29:25.871Z,34.40
2017-09-12T20:31:54.908Z,34.50
2017-09-12T20:34:30.376Z,34.40
2017-09-12T20:36:59.000Z,34.40
2017-09-12T20:39:27.420Z,34.40
2017-09-12T20:41:56.147Z,34.40
2017-09-12T20:44:24.726Z,34.40
2017-09-12T20:46:53.340Z,34.40
2017-09-12T20:49:22.296Z,34.40
2017-09-12T20:51:50.688Z,34.40
2017-09-12T20:54:19.851Z,34.40
2017-09-12T20:56:48.548Z,34.30
2017-09-12T20:59:17.256Z,34.40
2017-09-12T21:01:45.875Z,34.30
2017-09-12T21:04:15.347Z,34.20
2017-09-12T21:06:43.966Z,34.20
2017-09-12T21:09:12.378Z,34.20
2017-09-12T21:11:41.080Z,34.20
2017-09-12T21:14:09.688Z,34.20
2017-09-12T21:16:38.512Z,34.20
2017-09-12T21:19:07.224Z,34.10
2017-09-12T21:21:35.756Z,34.10
2017-09-12T21:24:04.909Z,34.00
2017-09-12T21:26:33.616Z,34.10
2017-09-12T21:29:02.220Z,34.00
2017-09-12T21:31:30.947Z,34.00
2017-09-12T21:34:00.120Z,33.90
2017-09-12T21:36:36.092Z,33.90
2017-09-12T21:39:05.850Z,33.90
2017-09-12T21:41:34.523Z,33.90
2017-09-12T21:44:03.005Z,33.90
2017-09-12T21:46:31.324Z,33.80
2017-09-12T21:49:00.257Z,33.80
2017-09-12T21:51:28.664Z,33.80
2017-09-12T21:53:58.596Z,33.80
2017-09-12T21:56:27.159Z,33.80
2017-09-12T21:58:55.693Z,33.80
2017-09-12T22:01:25.250Z,33.80
2017-09-12T22:03:53.800Z,33.70
2017-09-12T22:06:22.597Z,33.80
2017-09-12T22:08:51.676Z,33.70
2017-09-12T22:11:20.769Z,33.70
2017-09-12T22:13:49.871Z,33.60
2017-09-12T22:16:19.536Z,33.60
2017-09-12T22:18:47.913Z,33.60
2017-09-12T22:21:16.407Z,33.60
2017-09-12T22:23:45.221Z,33.60
2017-09-12T22:26:13.967Z,33.60
2017-09-12T22:28:42.503Z,33.70
2017-09-12T22:31:11.744Z,33.60
2017-09-12T22:33:40.259Z,33.60
2017-09-12T22:36:09.267Z,33.60
2017-09-12T22:38:38.034Z,33.60
2017-09-12T22:41:06.602Z,33.60
2017-09-12T22:43:35.983Z,33.60
2017-09-12T22:46:04.795Z,33.60
2017-09-12T22:48:33.456Z,33.60
2017-09-12T22:51:03.000Z,33.50
2017-09-12T22:53:31.958Z,33.50
2017-09-12T22:56:01.332Z,33.50
2017-09-12T22:58:30.048Z,33.40
2017-09-12T23:00:58.300Z,33.50
2017-09-12T23:03:26.864Z,33.50
2017-09-12T23:05:55.501Z,33.50
2017-09-12T23:08:23.640Z,33.50
2017-09-12T23:10:52.224Z,33.40
2017-09-12T23:13:20.970Z,33.50
2017-09-12T23:15:49.543Z,33.50
2017-09-12T23:18:18.161Z,33.40
2017-09-12T23:20:46.774Z,33.40
2017-09-12T23:23:15.596Z,33.40
2017-09-12T23:25:44.960Z,33.30
2017-09-12T23:28:13.588Z,33.20
2017-09-12T23:30:42.219Z,32.80
2017-09-12T23:33:10.796Z,32.90
2017-09-12T23:35:39.373Z,32.90
2017-09-12T23:38:08.343Z,32.60
2017-09-12T23:40:37.043Z,32.40
2017-09-12T23:43:05.657Z,32.30
2017-09-12T23:45:34.445Z,32.30
2017-09-12T23:48:03.116Z,32.30
2017-09-12T23:50:31.168Z,32.30
2017-09-12T23:52:59.915Z,32.30
2017-09-12T23:55:29.189Z,32.30
2017-09-12T23:57:57.797Z,32.30
